sensor_id;sensor_type;location;lat;lon;timestamp;P1;durP1;ratioP1;P2;durP2;ratioP2
25846;SDS011;13676;50.168;8.568;2023-09-07T00:00:46;3.55;;;1.88;;
25846;SDS011;13676;50.168;8.568;2023-09-07T00:03:13;3.38;;;2.03;;
25846;SDS011;13676;50.168;8.568;2023-09-07T00:05:38;2.42;;;1.95;;
25846;SDS011;13676;50.168;8.568;2023-09-07T00:08:04;3.83;;;1.77;;
25846;SDS011;13676;50.168;8.568;2023-09-07T00:10:29;4.65;;;2.30;;
25846;SDS011;13676;50.168;8.568;2023-09-07T00:12:55;4.13;;;1.65;;
25846;SDS011;13676;50.168;8.568;2023-09-07T00:15:20;2.20;;;1.80;;
25846;SDS011;13676;50.168;8.568;2023-09-07T00:17:46;2.50;;;1.75;;
25846;SDS011;13676;50.168;8.568;2023-09-07T00:20:11;3.35;;;1.70;;
25846;SDS011;13676;50.168;8.568;2023-09-07T00:25:05;2.10;;;1.77;;
25846;SDS011;13676;50.168;8.568;2023-09-07T00:27:32;3.00;;;1.80;;
25846;SDS011;13676;50.168;8.568;2023-09-07T00:29:59;3.63;;;2.00;;
25846;SDS011;13676;50.168;8.568;2023-09-07T00:32:25;8.02;;;2.42;;
25846;SDS011;13676;50.168;8.568;2023-09-07T00:34:50;3.17;;;2.05;;
25846;SDS011;13676;50.168;8.568;2023-09-07T00:37:15;5.05;;;2.10;;
25846;SDS011;13676;50.168;8.568;2023-09-07T00:39:41;5.70;;;2.00;;
25846;SDS011;13676;50.168;8.568;2023-09-07T00:42:06;2.38;;;1.90;;
25846;SDS011;13676;50.168;8.568;2023-09-07T00:44:31;5.20;;;1.92;;
25846;SDS011;13676;50.168;8.568;2023-09-07T00:46:57;4.72;;;2.20;;
25846;SDS011;13676;50.168;8.568;2023-09-07T00:49:23;2.30;;;1.92;;
25846;SDS011;13676;50.168;8.568;2023-09-07T00:51:49;3.15;;;1.80;;
25846;SDS011;13676;50.168;8.568;2023-09-07T00:54:15;2.20;;;1.67;;
25846;SDS011;13676;50.168;8.568;2023-09-07T00:56:41;3.03;;;2.08;;
25846;SDS011;13676;50.168;8.568;2023-09-07T00:59:07;2.78;;;1.77;;
25846;SDS011;13676;50.168;8.568;2023-09-07T01:01:32;3.67;;;1.98;;
25846;SDS011;13676;50.168;8.568;2023-09-07T01:04:00;2.88;;;1.83;;
25846;SDS011;13676;50.168;8.568;2023-09-07T01:06:30;3.03;;;2.22;;
25846;SDS011;13676;50.168;8.568;2023-09-07T01:09:00;3.85;;;1.80;;
25846;SDS011;13676;50.168;8.568;2023-09-07T01:11:36;2.80;;;2.20;;
25846;SDS011;13676;50.168;8.568;2023-09-07T01:14:02;6.30;;;2.05;;
25846;SDS011;13676;50.168;8.568;2023-09-07T01:16:29;2.27;;;1.90;;
25846;SDS011;13676;50.168;8.568;2023-09-07T01:18:55;2.17;;;1.70;;
25846;SDS011;13676;50.168;8.568;2023-09-07T01:21:24;4.07;;;2.08;;
25846;SDS011;13676;50.168;8.568;2023-09-07T01:23:51;5.15;;;2.13;;
25846;SDS011;13676;50.168;8.568;2023-09-07T01:26:20;2.88;;;1.67;;
25846;SDS011;13676;50.168;8.568;2023-09-07T01:28:46;2.42;;;2.00;;
25846;SDS011;13676;50.168;8.568;2023-09-07T01:31:12;5.80;;;2.00;;
25846;SDS011;13676;50.168;8.568;2023-09-07T01:33:40;3.63;;;1.73;;
25846;SDS011;13676;50.168;8.568;2023-09-07T01:36:06;4.88;;;1.80;;
25846;SDS011;13676;50.168;8.568;2023-09-07T01:38:32;4.22;;;1.98;;
25846;SDS011;13676;50.168;8.568;2023-09-07T01:40:58;2.78;;;2.25;;
25846;SDS011;13676;50.168;8.568;2023-09-07T01:43:23;2.20;;;2.00;;
25846;SDS011;13676;50.168;8.568;2023-09-07T01:45:52;3.17;;;1.98;;
25846;SDS011;13676;50.168;8.568;2023-09-07T01:48:17;2.75;;;1.90;;
25846;SDS011;13676;50.168;8.568;2023-09-07T01:50:43;4.35;;;2.33;;
25846;SDS011;13676;50.168;8.568;2023-09-07T01:53:08;3.65;;;2.13;;
25846;SDS011;13676;50.168;8.568;2023-09-07T01:55:34;4.85;;;1.85;;
25846;SDS011;13676;50.168;8.568;2023-09-07T02:00:26;2.75;;;2.00;;
25846;SDS011;13676;50.168;8.568;2023-09-07T02:02:52;2.25;;;1.67;;
25846;SDS011;13676;50.168;8.568;2023-09-07T02:05:17;4.80;;;2.30;;
25846;SDS011;13676;50.168;8.568;2023-09-07T02:07:44;2.45;;;1.90;;
25846;SDS011;13676;50.168;8.568;2023-09-07T02:10:12;3.70;;;2.28;;
25846;SDS011;13676;50.168;8.568;2023-09-07T02:12:37;2.40;;;2.13;;
25846;SDS011;13676;50.168;8.568;2023-09-07T02:15:04;5.20;;;2.03;;
25846;SDS011;13676;50.168;8.568;2023-09-07T02:17:30;2.75;;;2.15;;
25846;SDS011;13676;50.168;8.568;2023-09-07T02:19:57;2.17;;;1.80;;
25846;SDS011;13676;50.168;8.568;2023-09-07T02:22:22;2.83;;;1.92;;
25846;SDS011;13676;50.168;8.568;2023-09-07T02:24:49;2.97;;;1.75;;
25846;SDS011;13676;50.168;8.568;2023-09-07T02:27:14;3.92;;;1.90;;
25846;SDS011;13676;50.168;8.568;2023-09-07T02:29:43;3.13;;;1.90;;
25846;SDS011;13676;50.168;8.568;2023-09-07T02:32:10;2.67;;;2.08;;
25846;SDS011;13676;50.168;8.568;2023-09-07T02:34:36;2.33;;;1.93;;
25846;SDS011;13676;50.168;8.568;2023-09-07T02:37:01;3.47;;;1.83;;
25846;SDS011;13676;50.168;8.568;2023-09-07T02:39:31;3.03;;;2.10;;
25846;SDS011;13676;50.168;8.568;2023-09-07T02:41:57;3.60;;;2.35;;
25846;SDS011;13676;50.168;8.568;2023-09-07T02:44:26;3.25;;;1.98;;
25846;SDS011;13676;50.168;8.568;2023-09-07T02:46:52;1.85;;;1.60;;
25846;SDS011;13676;50.168;8.568;2023-09-07T02:49:20;2.58;;;1.92;;
25846;SDS011;13676;50.168;8.568;2023-09-07T02:51:46;4.38;;;1.92;;
25846;SDS011;13676;50.168;8.568;2023-09-07T02:54:12;2.35;;;1.80;;
25846;SDS011;13676;50.168;8.568;2023-09-07T02:56:38;2.30;;;1.88;;
25846;SDS011;13676;50.168;8.568;2023-09-07T02:59:04;3.53;;;2.13;;
25846;SDS011;13676;50.168;8.568;2023-09-07T03:01:30;2.80;;;2.00;;
25846;SDS011;13676;50.168;8.568;2023-09-07T03:03:56;2.47;;;1.87;;
25846;SDS011;13676;50.168;8.568;2023-09-07T03:06:22;4.50;;;2.13;;
25846;SDS011;13676;50.168;8.568;2023-09-07T03:08:50;2.75;;;2.08;;
25846;SDS011;13676;50.168;8.568;2023-09-07T03:11:18;4.40;;;2.63;;
25846;SDS011;13676;50.168;8.568;2023-09-07T03:13:45;2.38;;;1.83;;
25846;SDS011;13676;50.168;8.568;2023-09-07T03:16:12;3.75;;;2.58;;
25846;SDS011;13676;50.168;8.568;2023-09-07T03:18:38;2.20;;;2.00;;
25846;SDS011;13676;50.168;8.568;2023-09-07T03:21:16;3.08;;;2.17;;
25846;SDS011;13676;50.168;8.568;2023-09-07T03:23:43;9.25;;;2.05;;
25846;SDS011;13676;50.168;8.568;2023-09-07T03:26:11;4.30;;;2.10;;
25846;SDS011;13676;50.168;8.568;2023-09-07T03:28:36;2.33;;;1.90;;
25846;SDS011;13676;50.168;8.568;2023-09-07T03:31:02;3.42;;;2.30;;
25846;SDS011;13676;50.168;8.568;2023-09-07T03:33:28;7.10;;;2.50;;
25846;SDS011;13676;50.168;8.568;2023-09-07T03:35:53;3.83;;;2.28;;
25846;SDS011;13676;50.168;8.568;2023-09-07T03:38:23;6.85;;;2.33;;
25846;SDS011;13676;50.168;8.568;2023-09-07T03:40:49;4.03;;;2.40;;
25846;SDS011;13676;50.168;8.568;2023-09-07T03:43:14;3.30;;;2.40;;
25846;SDS011;13676;50.168;8.568;2023-09-07T03:45:39;3.63;;;1.98;;
25846;SDS011;13676;50.168;8.568;2023-09-07T03:48:05;5.25;;;2.83;;
25846;SDS011;13676;50.168;8.568;2023-09-07T03:50:30;7.03;;;3.05;;
25846;SDS011;13676;50.168;8.568;2023-09-07T03:52:56;4.80;;;2.97;;
25846;SDS011;13676;50.168;8.568;2023-09-07T03:55:22;3.45;;;2.42;;
25846;SDS011;13676;50.168;8.568;2023-09-07T04:00:15;3.28;;;2.20;;
25846;SDS011;13676;50.168;8.568;2023-09-07T04:02:41;6.63;;;3.10;;
25846;SDS011;13676;50.168;8.568;2023-09-07T04:05:06;3.70;;;3.00;;
25846;SDS011;13676;50.168;8.568;2023-09-07T04:07:32;6.75;;;2.85;;
25846;SDS011;13676;50.168;8.568;2023-09-07T04:09:58;4.72;;;2.60;;
25846;SDS011;13676;50.168;8.568;2023-09-07T04:12:25;7.50;;;2.63;;
25846;SDS011;13676;50.168;8.568;2023-09-07T04:14:51;4.68;;;2.70;;
25846;SDS011;13676;50.168;8.568;2023-09-07T04:17:16;7.13;;;2.97;;
25846;SDS011;13676;50.168;8.568;2023-09-07T04:19:41;3.13;;;2.38;;
25846;SDS011;13676;50.168;8.568;2023-09-07T04:22:08;4.00;;;2.77;;
25846;SDS011;13676;50.168;8.568;2023-09-07T04:24:34;5.45;;;2.60;;
25846;SDS011;13676;50.168;8.568;2023-09-07T04:26:59;4.40;;;2.50;;
25846;SDS011;13676;50.168;8.568;2023-09-07T04:29:28;4.32;;;2.80;;
25846;SDS011;13676;50.168;8.568;2023-09-07T04:31:56;5.00;;;2.97;;
25846;SDS011;13676;50.168;8.568;2023-09-07T04:34:22;3.60;;;2.38;;
25846;SDS011;13676;50.168;8.568;2023-09-07T04:36:48;6.80;;;2.65;;
25846;SDS011;13676;50.168;8.568;2023-09-07T04:39:14;2.80;;;2.47;;
25846;SDS011;13676;50.168;8.568;2023-09-07T04:41:40;5.95;;;2.58;;
25846;SDS011;13676;50.168;8.568;2023-09-07T04:44:07;5.50;;;2.45;;
25846;SDS011;13676;50.168;8.568;2023-09-07T04:46:33;10.25;;;2.63;;
25846;SDS011;13676;50.168;8.568;2023-09-07T04:49:00;6.55;;;3.47;;
25846;SDS011;13676;50.168;8.568;2023-09-07T04:51:52;4.78;;;2.90;;
25846;SDS011;13676;50.168;8.568;2023-09-07T04:54:20;5.65;;;2.75;;
25846;SDS011;13676;50.168;8.568;2023-09-07T04:56:45;4.45;;;2.50;;
25846;SDS011;13676;50.168;8.568;2023-09-07T04:59:11;3.88;;;2.65;;
25846;SDS011;13676;50.168;8.568;2023-09-07T05:01:39;4.10;;;2.85;;
25846;SDS011;13676;50.168;8.568;2023-09-07T05:04:04;3.80;;;2.53;;
25846;SDS011;13676;50.168;8.568;2023-09-07T05:06:30;3.10;;;2.58;;
25846;SDS011;13676;50.168;8.568;2023-09-07T05:08:55;4.25;;;2.80;;
25846;SDS011;13676;50.168;8.568;2023-09-07T05:11:20;4.30;;;2.42;;
25846;SDS011;13676;50.168;8.568;2023-09-07T05:13:46;4.25;;;2.70;;
25846;SDS011;13676;50.168;8.568;2023-09-07T05:16:12;3.58;;;2.60;;
25846;SDS011;13676;50.168;8.568;2023-09-07T05:18:37;4.35;;;2.85;;
25846;SDS011;13676;50.168;8.568;2023-09-07T05:21:17;5.05;;;2.75;;
25846;SDS011;13676;50.168;8.568;2023-09-07T05:23:43;2.90;;;2.50;;
25846;SDS011;13676;50.168;8.568;2023-09-07T05:26:09;4.47;;;2.80;;
25846;SDS011;13676;50.168;8.568;2023-09-07T05:28:35;3.20;;;2.90;;
25846;SDS011;13676;50.168;8.568;2023-09-07T05:31:01;2.83;;;2.20;;
25846;SDS011;13676;50.168;8.568;2023-09-07T05:33:27;3.38;;;2.67;;
25846;SDS011;13676;50.168;8.568;2023-09-07T05:35:52;3.45;;;2.85;;
25846;SDS011;13676;50.168;8.568;2023-09-07T05:38:18;4.78;;;3.03;;
25846;SDS011;13676;50.168;8.568;2023-09-07T05:40:43;4.38;;;2.72;;
25846;SDS011;13676;50.168;8.568;2023-09-07T05:43:11;3.58;;;2.92;;
25846;SDS011;13676;50.168;8.568;2023-09-07T05:45:38;3.80;;;2.58;;
25846;SDS011;13676;50.168;8.568;2023-09-07T05:48:05;6.68;;;2.95;;
25846;SDS011;13676;50.168;8.568;2023-09-07T05:50:33;4.75;;;2.60;;
25846;SDS011;13676;50.168;8.568;2023-09-07T05:55:24;3.75;;;3.28;;
25846;SDS011;13676;50.168;8.568;2023-09-07T05:57:49;6.50;;;2.95;;
25846;SDS011;13676;50.168;8.568;2023-09-07T06:00:15;5.97;;;3.53;;
25846;SDS011;13676;50.168;8.568;2023-09-07T06:02:42;6.13;;;3.08;;
25846;SDS011;13676;50.168;8.568;2023-09-07T06:05:07;3.47;;;2.70;;
25846;SDS011;13676;50.168;8.568;2023-09-07T06:07:33;9.95;;;3.88;;
25846;SDS011;13676;50.168;8.568;2023-09-07T06:09:58;5.00;;;3.13;;
25846;SDS011;13676;50.168;8.568;2023-09-07T06:12:24;3.50;;;2.78;;
25846;SDS011;13676;50.168;8.568;2023-09-07T06:14:49;4.70;;;3.13;;
25846;SDS011;13676;50.168;8.568;2023-09-07T06:17:16;5.22;;;2.97;;
25846;SDS011;13676;50.168;8.568;2023-09-07T06:19:41;5.15;;;3.20;;
25846;SDS011;13676;50.168;8.568;2023-09-07T06:22:07;4.10;;;3.47;;
25846;SDS011;13676;50.168;8.568;2023-09-07T06:24:35;8.07;;;3.45;;
25846;SDS011;13676;50.168;8.568;2023-09-07T06:27:01;5.20;;;2.67;;
25846;SDS011;13676;50.168;8.568;2023-09-07T06:29:26;5.35;;;3.10;;
25846;SDS011;13676;50.168;8.568;2023-09-07T06:31:52;6.00;;;3.05;;
25846;SDS011;13676;50.168;8.568;2023-09-07T06:34:17;4.47;;;3.35;;
25846;SDS011;13676;50.168;8.568;2023-09-07T06:36:43;3.05;;;2.63;;
25846;SDS011;13676;50.168;8.568;2023-09-07T06:39:08;3.53;;;3.03;;
25846;SDS011;13676;50.168;8.568;2023-09-07T06:41:36;8.13;;;3.22;;
25846;SDS011;13676;50.168;8.568;2023-09-07T06:44:01;4.97;;;3.10;;
25846;SDS011;13676;50.168;8.568;2023-09-07T06:46:27;4.25;;;3.10;;
25846;SDS011;13676;50.168;8.568;2023-09-07T06:48:52;4.82;;;3.00;;
25846;SDS011;13676;50.168;8.568;2023-09-07T06:51:18;4.90;;;2.72;;
25846;SDS011;13676;50.168;8.568;2023-09-07T06:53:43;5.85;;;3.03;;
25846;SDS011;13676;50.168;8.568;2023-09-07T06:56:09;4.43;;;3.10;;
25846;SDS011;13676;50.168;8.568;2023-09-07T06:58:35;3.30;;;2.80;;
25846;SDS011;13676;50.168;8.568;2023-09-07T07:01:00;8.93;;;3.13;;
25846;SDS011;13676;50.168;8.568;2023-09-07T07:03:27;6.70;;;3.17;;
25846;SDS011;13676;50.168;8.568;2023-09-07T07:05:54;3.38;;;2.78;;
25846;SDS011;13676;50.168;8.568;2023-09-07T07:08:49;5.60;;;3.30;;
25846;SDS011;13676;50.168;8.568;2023-09-07T07:11:15;10.00;;;3.10;;
25846;SDS011;13676;50.168;8.568;2023-09-07T07:13:41;5.07;;;3.22;;
25846;SDS011;13676;50.168;8.568;2023-09-07T07:16:06;5.35;;;3.45;;
25846;SDS011;13676;50.168;8.568;2023-09-07T07:18:33;4.28;;;3.13;;
25846;SDS011;13676;50.168;8.568;2023-09-07T07:20:58;6.13;;;3.00;;
25846;SDS011;13676;50.168;8.568;2023-09-07T07:23:26;4.55;;;3.17;;
25846;SDS011;13676;50.168;8.568;2023-09-07T07:25:52;4.10;;;3.45;;
25846;SDS011;13676;50.168;8.568;2023-09-07T07:28:18;6.05;;;3.17;;
25846;SDS011;13676;50.168;8.568;2023-09-07T07:30:43;11.30;;;3.33;;
25846;SDS011;13676;50.168;8.568;2023-09-07T07:33:09;9.15;;;3.03;;
25846;SDS011;13676;50.168;8.568;2023-09-07T07:35:36;3.17;;;2.38;;
25846;SDS011;13676;50.168;8.568;2023-09-07T07:38:02;6.30;;;3.38;;
25846;SDS011;13676;50.168;8.568;2023-09-07T07:40:33;5.65;;;2.80;;
25846;SDS011;13676;50.168;8.568;2023-09-07T07:42:58;5.20;;;2.83;;
25846;SDS011;13676;50.168;8.568;2023-09-07T07:45:24;4.57;;;3.10;;
25846;SDS011;13676;50.168;8.568;2023-09-07T07:47:50;4.65;;;2.63;;
25846;SDS011;13676;50.168;8.568;2023-09-07T07:50:16;3.97;;;3.42;;
25846;SDS011;13676;50.168;8.568;2023-09-07T07:52:42;4.70;;;3.08;;
25846;SDS011;13676;50.168;8.568;2023-09-07T07:55:07;6.57;;;2.97;;
25846;SDS011;13676;50.168;8.568;2023-09-07T07:57:33;3.20;;;2.60;;
25846;SDS011;13676;50.168;8.568;2023-09-07T08:00:00;4.15;;;2.90;;
25846;SDS011;13676;50.168;8.568;2023-09-07T08:02:28;3.88;;;2.80;;
25846;SDS011;13676;50.168;8.568;2023-09-07T08:04:53;4.82;;;3.00;;
25846;SDS011;13676;50.168;8.568;2023-09-07T08:07:19;3.72;;;2.72;;
25846;SDS011;13676;50.168;8.568;2023-09-07T08:09:45;4.00;;;3.33;;
25846;SDS011;13676;50.168;8.568;2023-09-07T08:12:10;3.00;;;2.60;;
25846;SDS011;13676;50.168;8.568;2023-09-07T08:14:36;5.60;;;2.33;;
25846;SDS011;13676;50.168;8.568;2023-09-07T08:17:01;6.93;;;3.17;;
25846;SDS011;13676;50.168;8.568;2023-09-07T08:19:27;4.78;;;2.92;;
25846;SDS011;13676;50.168;8.568;2023-09-07T08:21:55;4.32;;;2.75;;
25846;SDS011;13676;50.168;8.568;2023-09-07T08:24:21;4.45;;;2.53;;
25846;SDS011;13676;50.168;8.568;2023-09-07T08:26:46;2.92;;;2.00;;
25846;SDS011;13676;50.168;8.568;2023-09-07T08:29:16;5.40;;;3.03;;
25846;SDS011;13676;50.168;8.568;2023-09-07T08:31:41;5.75;;;3.10;;
25846;SDS011;13676;50.168;8.568;2023-09-07T08:34:09;5.05;;;3.50;;
25846;SDS011;13676;50.168;8.568;2023-09-07T08:36:35;6.75;;;2.30;;
25846;SDS011;13676;50.168;8.568;2023-09-07T08:39:00;3.03;;;2.15;;
25846;SDS011;13676;50.168;8.568;2023-09-07T08:41:30;5.50;;;3.17;;
25846;SDS011;13676;50.168;8.568;2023-09-07T08:43:57;6.18;;;3.22;;
25846;SDS011;13676;50.168;8.568;2023-09-07T08:46:22;3.00;;;2.55;;
25846;SDS011;13676;50.168;8.568;2023-09-07T08:48:54;5.00;;;2.70;;
25846;SDS011;13676;50.168;8.568;2023-09-07T08:51:20;3.00;;;2.30;;
25846;SDS011;13676;50.168;8.568;2023-09-07T08:53:46;7.65;;;3.20;;
25846;SDS011;13676;50.168;8.568;2023-09-07T08:56:12;3.45;;;3.00;;
25846;SDS011;13676;50.168;8.568;2023-09-07T08:58:38;7.83;;;4.00;;
25846;SDS011;13676;50.168;8.568;2023-09-07T09:01:05;5.68;;;2.60;;
25846;SDS011;13676;50.168;8.568;2023-09-07T09:03:30;2.60;;;2.33;;
25846;SDS011;13676;50.168;8.568;2023-09-07T09:05:56;4.72;;;2.45;;
25846;SDS011;13676;50.168;8.568;2023-09-07T09:08:23;2.97;;;2.30;;
25846;SDS011;13676;50.168;8.568;2023-09-07T09:11:02;3.45;;;2.60;;
25846;SDS011;13676;50.168;8.568;2023-09-07T09:13:31;4.13;;;2.40;;
25846;SDS011;13676;50.168;8.568;2023-09-07T09:16:00;3.08;;;2.58;;
25846;SDS011;13676;50.168;8.568;2023-09-07T09:18:34;2.63;;;2.22;;
25846;SDS011;13676;50.168;8.568;2023-09-07T09:21:00;3.13;;;2.45;;
25846;SDS011;13676;50.168;8.568;2023-09-07T09:23:33;2.55;;;2.20;;
25846;SDS011;13676;50.168;8.568;2023-09-07T09:26:02;5.20;;;3.05;;
25846;SDS011;13676;50.168;8.568;2023-09-07T09:28:33;4.00;;;2.25;;
25846;SDS011;13676;50.168;8.568;2023-09-07T09:31:00;4.13;;;2.30;;
25846;SDS011;13676;50.168;8.568;2023-09-07T09:33:26;4.55;;;2.10;;
25846;SDS011;13676;50.168;8.568;2023-09-07T09:35:53;3.28;;;2.28;;
25846;SDS011;13676;50.168;8.568;2023-09-07T09:38:20;3.22;;;2.65;;
25846;SDS011;13676;50.168;8.568;2023-09-07T09:40:54;6.05;;;2.00;;
25846;SDS011;13676;50.168;8.568;2023-09-07T09:43:22;2.58;;;2.22;;
25846;SDS011;13676;50.168;8.568;2023-09-07T09:45:48;4.70;;;2.10;;
25846;SDS011;13676;50.168;8.568;2023-09-07T09:48:21;3.47;;;2.50;;
25846;SDS011;13676;50.168;8.568;2023-09-07T09:50:51;5.95;;;2.28;;
25846;SDS011;13676;50.168;8.568;2023-09-07T09:53:17;2.45;;;2.13;;
25846;SDS011;13676;50.168;8.568;2023-09-07T09:55:49;4.93;;;3.03;;
25846;SDS011;13676;50.168;8.568;2023-09-07T09:58:15;3.17;;;2.20;;
25846;SDS011;13676;50.168;8.568;2023-09-07T10:00:42;6.90;;;2.28;;
25846;SDS011;13676;50.168;8.568;2023-09-07T10:03:46;3.05;;;2.20;;
25846;SDS011;13676;50.168;8.568;2023-09-07T10:06:23;7.65;;;2.40;;
25846;SDS011;13676;50.168;8.568;2023-09-07T10:08:59;3.38;;;2.25;;
25846;SDS011;13676;50.168;8.568;2023-09-07T10:11:32;5.25;;;3.20;;
25846;SDS011;13676;50.168;8.568;2023-09-07T10:14:01;4.35;;;2.72;;
25846;SDS011;13676;50.168;8.568;2023-09-07T10:16:49;3.60;;;2.33;;
25846;SDS011;13676;50.168;8.568;2023-09-07T10:19:18;3.15;;;2.05;;
25846;SDS011;13676;50.168;8.568;2023-09-07T10:21:45;2.75;;;2.25;;
25846;SDS011;13676;50.168;8.568;2023-09-07T10:24:11;3.97;;;2.50;;
25846;SDS011;13676;50.168;8.568;2023-09-07T10:26:36;2.05;;;1.85;;
25846;SDS011;13676;50.168;8.568;2023-09-07T10:29:02;3.55;;;2.00;;
25846;SDS011;13676;50.168;8.568;2023-09-07T10:31:30;2.50;;;2.30;;
25846;SDS011;13676;50.168;8.568;2023-09-07T10:33:56;6.65;;;3.35;;
25846;SDS011;13676;50.168;8.568;2023-09-07T10:38:48;4.55;;;2.83;;
25846;SDS011;13676;50.168;8.568;2023-09-07T10:41:14;4.80;;;2.65;;
25846;SDS011;13676;50.168;8.568;2023-09-07T10:43:48;4.32;;;2.33;;
25846;SDS011;13676;50.168;8.568;2023-09-07T10:46:14;2.75;;;1.80;;
25846;SDS011;13676;50.168;8.568;2023-09-07T10:48:40;2.22;;;1.92;;
25846;SDS011;13676;50.168;8.568;2023-09-07T10:51:06;4.88;;;2.03;;
25846;SDS011;13676;50.168;8.568;2023-09-07T10:53:32;10.48;;;2.17;;
25846;SDS011;13676;50.168;8.568;2023-09-07T10:56:04;4.07;;;2.40;;
25846;SDS011;13676;50.168;8.568;2023-09-07T10:58:31;4.22;;;2.25;;
25846;SDS011;13676;50.168;8.568;2023-09-07T11:01:00;2.10;;;1.75;;
25846;SDS011;13676;50.168;8.568;2023-09-07T11:06:01;5.43;;;2.80;;
25846;SDS011;13676;50.168;8.568;2023-09-07T11:08:29;2.80;;;2.00;;
25846;SDS011;13676;50.168;8.568;2023-09-07T11:10:55;3.90;;;2.03;;
25846;SDS011;13676;50.168;8.568;2023-09-07T11:13:24;11.43;;;2.28;;
25846;SDS011;13676;50.168;8.568;2023-09-07T11:15:52;4.25;;;2.33;;
25846;SDS011;13676;50.168;8.568;2023-09-07T11:18:19;2.92;;;2.30;;
25846;SDS011;13676;50.168;8.568;2023-09-07T11:20:46;6.72;;;2.20;;
25846;SDS011;13676;50.168;8.568;2023-09-07T11:23:13;6.17;;;2.30;;
25846;SDS011;13676;50.168;8.568;2023-09-07T11:25:49;3.33;;;2.08;;
25846;SDS011;13676;50.168;8.568;2023-09-07T11:28:15;3.38;;;2.03;;
25846;SDS011;13676;50.168;8.568;2023-09-07T11:30:51;3.33;;;2.22;;
25846;SDS011;13676;50.168;8.568;2023-09-07T11:33:18;3.42;;;2.33;;
25846;SDS011;13676;50.168;8.568;2023-09-07T11:35:44;2.70;;;2.00;;
25846;SDS011;13676;50.168;8.568;2023-09-07T11:38:12;2.53;;;1.92;;
25846;SDS011;13676;50.168;8.568;2023-09-07T11:40:38;4.50;;;2.30;;
25846;SDS011;13676;50.168;8.568;2023-09-07T11:43:04;3.70;;;2.83;;
25846;SDS011;13676;50.168;8.568;2023-09-07T11:45:30;7.85;;;2.20;;
25846;SDS011;13676;50.168;8.568;2023-09-07T11:47:57;3.22;;;2.10;;
25846;SDS011;13676;50.168;8.568;2023-09-07T11:50:26;5.72;;;2.40;;
25846;SDS011;13676;50.168;8.568;2023-09-07T11:52:55;3.92;;;2.08;;
25846;SDS011;13676;50.168;8.568;2023-09-07T11:55:22;4.60;;;2.58;;
25846;SDS011;13676;50.168;8.568;2023-09-07T11:57:49;3.30;;;2.47;;
25846;SDS011;13676;50.168;8.568;2023-09-07T12:00:17;3.03;;;2.17;;
25846;SDS011;13676;50.168;8.568;2023-09-07T12:02:43;5.37;;;2.37;;
25846;SDS011;13676;50.168;8.568;2023-09-07T12:05:13;3.72;;;2.05;;
25846;SDS011;13676;50.168;8.568;2023-09-07T12:07:41;4.85;;;2.53;;
25846;SDS011;13676;50.168;8.568;2023-09-07T12:10:13;4.53;;;2.13;;
25846;SDS011;13676;50.168;8.568;2023-09-07T12:12:43;3.05;;;2.25;;
25846;SDS011;13676;50.168;8.568;2023-09-07T12:15:09;3.67;;;2.30;;
25846;SDS011;13676;50.168;8.568;2023-09-07T12:17:51;3.72;;;2.75;;
25846;SDS011;13676;50.168;8.568;2023-09-07T12:20:22;7.63;;;2.70;;
25846;SDS011;13676;50.168;8.568;2023-09-07T12:22:47;3.50;;;2.00;;
25846;SDS011;13676;50.168;8.568;2023-09-07T12:25:14;4.00;;;2.60;;
25846;SDS011;13676;50.168;8.568;2023-09-07T12:27:45;2.55;;;2.35;;
25846;SDS011;13676;50.168;8.568;2023-09-07T12:30:15;5.30;;;2.50;;
25846;SDS011;13676;50.168;8.568;2023-09-07T12:32:44;3.10;;;2.38;;
25846;SDS011;13676;50.168;8.568;2023-09-07T12:35:10;5.22;;;2.42;;
25846;SDS011;13676;50.168;8.568;2023-09-07T12:37:37;2.60;;;1.70;;
25846;SDS011;13676;50.168;8.568;2023-09-07T12:40:10;2.05;;;1.77;;
25846;SDS011;13676;50.168;8.568;2023-09-07T12:42:40;2.75;;;2.00;;
25846;SDS011;13676;50.168;8.568;2023-09-07T12:45:11;4.10;;;2.58;;
25846;SDS011;13676;50.168;8.568;2023-09-07T12:47:39;5.75;;;3.13;;
25846;SDS011;13676;50.168;8.568;2023-09-07T12:50:06;3.65;;;2.83;;
25846;SDS011;13676;50.168;8.568;2023-09-07T12:52:33;3.30;;;2.20;;
25846;SDS011;13676;50.168;8.568;2023-09-07T12:55:02;5.78;;;2.40;;
25846;SDS011;13676;50.168;8.568;2023-09-07T12:57:28;3.58;;;2.08;;
25846;SDS011;13676;50.168;8.568;2023-09-07T12:59:54;7.35;;;2.50;;
25846;SDS011;13676;50.168;8.568;2023-09-07T13:02:19;6.18;;;2.42;;
25846;SDS011;13676;50.168;8.568;2023-09-07T13:04:44;2.83;;;2.50;;
25846;SDS011;13676;50.168;8.568;2023-09-07T13:07:10;3.70;;;2.30;;
25846;SDS011;13676;50.168;8.568;2023-09-07T13:09:37;2.30;;;1.92;;
25846;SDS011;13676;50.168;8.568;2023-09-07T13:12:03;2.65;;;2.00;;
25846;SDS011;13676;50.168;8.568;2023-09-07T13:14:28;1.75;;;1.65;;
25846;SDS011;13676;50.168;8.568;2023-09-07T13:16:54;3.10;;;2.08;;
25846;SDS011;13676;50.168;8.568;2023-09-07T13:19:19;3.15;;;2.30;;
25846;SDS011;13676;50.168;8.568;2023-09-07T13:21:45;6.72;;;3.30;;
25846;SDS011;13676;50.168;8.568;2023-09-07T13:24:10;3.45;;;2.70;;
25846;SDS011;13676;50.168;8.568;2023-09-07T13:26:36;4.10;;;2.00;;
25846;SDS011;13676;50.168;8.568;2023-09-07T13:29:02;2.75;;;2.00;;
25846;SDS011;13676;50.168;8.568;2023-09-07T13:31:28;3.03;;;2.30;;
25846;SDS011;13676;50.168;8.568;2023-09-07T13:33:53;3.30;;;2.60;;
25846;SDS011;13676;50.168;8.568;2023-09-07T13:36:18;5.20;;;2.30;;
25846;SDS011;13676;50.168;8.568;2023-09-07T13:38:44;3.72;;;2.10;;
25846;SDS011;13676;50.168;8.568;2023-09-07T13:41:09;5.53;;;2.70;;
25846;SDS011;13676;50.168;8.568;2023-09-07T13:43:36;4.03;;;2.55;;
25846;SDS011;13676;50.168;8.568;2023-09-07T13:46:02;4.70;;;2.75;;
25846;SDS011;13676;50.168;8.568;2023-09-07T13:48:27;2.95;;;2.58;;
25846;SDS011;13676;50.168;8.568;2023-09-07T13:53:20;7.13;;;2.67;;
25846;SDS011;13676;50.168;8.568;2023-09-07T13:55:45;8.43;;;2.90;;
25846;SDS011;13676;50.168;8.568;2023-09-07T13:58:12;3.55;;;2.40;;
25846;SDS011;13676;50.168;8.568;2023-09-07T14:00:37;4.05;;;2.10;;
25846;SDS011;13676;50.168;8.568;2023-09-07T14:03:03;4.07;;;2.47;;
25846;SDS011;13676;50.168;8.568;2023-09-07T14:05:29;6.10;;;2.42;;
25846;SDS011;13676;50.168;8.568;2023-09-07T14:07:57;5.22;;;2.55;;
25846;SDS011;13676;50.168;8.568;2023-09-07T14:10:24;5.07;;;2.70;;
25846;SDS011;13676;50.168;8.568;2023-09-07T14:12:49;5.88;;;2.58;;
25846;SDS011;13676;50.168;8.568;2023-09-07T14:15:16;2.70;;;2.10;;
25846;SDS011;13676;50.168;8.568;2023-09-07T14:18:00;3.42;;;2.65;;
25846;SDS011;13676;50.168;8.568;2023-09-07T14:22:56;2.92;;;2.42;;
25846;SDS011;13676;50.168;8.568;2023-09-07T14:27:48;4.57;;;2.20;;
25846;SDS011;13676;50.168;8.568;2023-09-07T14:30:16;3.83;;;2.40;;
25846;SDS011;13676;50.168;8.568;2023-09-07T14:32:44;5.20;;;2.03;;
25846;SDS011;13676;50.168;8.568;2023-09-07T14:35:15;2.95;;;1.92;;
25846;SDS011;13676;50.168;8.568;2023-09-07T14:37:53;3.55;;;2.75;;
25846;SDS011;13676;50.168;8.568;2023-09-07T14:40:23;2.60;;;1.83;;
25846;SDS011;13676;50.168;8.568;2023-09-07T14:43:15;4.50;;;2.53;;
25846;SDS011;13676;50.168;8.568;2023-09-07T14:46:06;4.35;;;2.90;;
25846;SDS011;13676;50.168;8.568;2023-09-07T14:49:08;5.00;;;2.60;;
25846;SDS011;13676;50.168;8.568;2023-09-07T14:52:08;3.97;;;2.60;;
25846;SDS011;13676;50.168;8.568;2023-09-07T14:55:13;3.08;;;2.30;;
25846;SDS011;13676;50.168;8.568;2023-09-07T14:57:59;4.22;;;2.50;;
25846;SDS011;13676;50.168;8.568;2023-09-07T15:00:40;3.10;;;1.95;;
25846;SDS011;13676;50.168;8.568;2023-09-07T15:03:30;3.20;;;2.13;;
25846;SDS011;13676;50.168;8.568;2023-09-07T15:05:56;5.25;;;2.20;;
25846;SDS011;13676;50.168;8.568;2023-09-07T15:08:24;3.42;;;2.50;;
25846;SDS011;13676;50.168;8.568;2023-09-07T15:10:51;3.63;;;2.10;;
25846;SDS011;13676;50.168;8.568;2023-09-07T15:13:22;3.22;;;2.33;;